Time;durP1;ratioP1;P1;durP2;ratioP2;P2;SDS_P1;SDS_P2;PMS_P1;PMS_P2;Temp;Humidity;BMP_temperature;BMP_pressure;BME280_temperature;BME280_humidity;BME280_pressure;Samples;Min_cycle;Max_cycle;Signal;HPM_P1;HPM_P2
2023/09/29 00:00:34;;;;;;;17.73;4.10;;;19.50;99.90;;;;;;5037874;28;20432;-70
2023/09/29 00:03:00;;;;;;;15.45;3.72;;;19.40;99.90;;;;;;5036293;28;20032;-69
2023/09/29 00:05:27;;;;;;;15.68;4.50;;;19.30;99.90;;;;;;5037498;28;20028;-69
2023/09/29 00:07:53;;;;;;;16.58;4.30;;;19.30;99.90;;;;;;5037510;28;20053;-69
2023/09/29 00:10:20;;;;;;;21.30;4.82;;;19.30;99.90;;;;;;5037577;28;20018;-69
2023/09/29 00:12:48;;;;;;;19.55;4.90;;;19.40;99.90;;;;;;5037351;28;20033;-69
2023/09/29 00:15:15;;;;;;;21.75;5.25;;;19.30;99.90;;;;;;5037602;28;20385;-69
2023/09/29 00:17:41;;;;;;;15.60;3.67;;;19.30;99.90;;;;;;5035371;28;20034;-68
2023/09/29 00:20:13;;;;;;;17.48;4.18;;;19.20;99.90;;;;;;5035862;28;20063;-68
2023/09/29 00:22:39;;;;;;;18.50;4.55;;;19.20;99.90;;;;;;5042024;28;20044;-68
2023/09/29 00:25:06;;;;;;;18.98;4.55;;;19.20;99.90;;;;;;5036636;28;20033;-68
2023/09/29 00:27:31;;;;;;;20.90;4.50;;;19.20;99.90;;;;;;5034515;28;20097;-68
2023/09/29 00:29:57;;;;;;;15.68;4.45;;;19.20;99.90;;;;;;5036876;28;20426;-68
2023/09/29 00:32:22;;;;;;;15.05;3.40;;;19.20;99.90;;;;;;5036836;28;20032;-68
2023/09/29 00:34:48;;;;;;;18.95;5.35;;;19.20;99.90;;;;;;5036759;28;20045;-68
2023/09/29 00:37:15;;;;;;;22.52;5.53;;;19.20;99.90;;;;;;5035096;28;20494;-68
2023/09/29 00:39:40;;;;;;;21.73;4.85;;;19.20;99.90;;;;;;5035463;28;20555;-68
2023/09/29 00:42:06;;;;;;;21.27;5.15;;;19.10;99.90;;;;;;5036672;28;20021;-68
2023/09/29 00:44:33;;;;;;;21.38;5.20;;;19.10;99.90;;;;;;5036784;28;20524;-68
2023/09/29 00:47:00;;;;;;;21.92;4.93;;;19.10;99.90;;;;;;5036791;28;20505;-68
2023/09/29 00:49:29;;;;;;;21.35;5.22;;;19.10;99.90;;;;;;5036594;28;20437;-68
2023/09/29 00:51:59;;;;;;;13.70;3.83;;;19.10;99.90;;;;;;5037013;28;20057;-68
2023/09/29 00:54:29;;;;;;;19.52;4.88;;;19.10;99.90;;;;;;5039370;28;20029;-68
2023/09/29 00:57:00;;;;;;;20.98;5.45;;;19.10;99.90;;;;;;5035744;28;20018;-69
2023/09/29 00:59:31;;;;;;;23.98;5.13;;;19.10;99.90;;;;;;5036951;28;20098;-69
2023/09/29 01:01:57;;;;;;;18.48;4.47;;;19.10;99.90;;;;;;5037417;28;20029;-69
2023/09/29 01:04:23;;;;;;;16.40;4.60;;;19.10;99.90;;;;;;5037012;28;20029;-69
2023/09/29 01:06:50;;;;;;;17.50;5.20;;;19.10;99.90;;;;;;5036970;28;20033;-68
2023/09/29 01:09:16;;;;;;;24.25;4.80;;;19.10;99.90;;;;;;5036894;28;20018;-69
2023/09/29 01:11:46;;;;;;;18.48;4.20;;;19.10;99.90;;;;;;5035555;28;20079;-68
2023/09/29 01:14:12;;;;;;;18.15;4.32;;;19.10;99.90;;;;;;5035652;28;20080;-68
2023/09/29 01:16:41;;;;;;;16.67;4.63;;;19.10;99.90;;;;;;5036946;28;20030;-68
2023/09/29 01:19:13;;;;;;;19.67;4.43;;;19.10;99.90;;;;;;5037062;28;20017;-68
2023/09/29 01:21:45;;;;;;;16.90;3.92;;;19.10;99.90;;;;;;5031003;28;20060;-69
2023/09/29 01:24:11;;;;;;;13.77;3.53;;;19.10;99.90;;;;;;5032296;28;20052;-68
2023/09/29 01:26:37;;;;;;;11.75;3.58;;;19.10;99.90;;;;;;5036712;28;20470;-69
2023/09/29 01:29:03;;;;;;;13.02;3.03;;;19.10;99.90;;;;;;5034653;28;20022;-69
2023/09/29 01:31:31;;;;;;;12.70;2.92;;;19.10;99.90;;;;;;5036785;28;20088;-69
2023/09/29 01:33:57;;;;;;;10.93;2.83;;;19.10;99.90;;;;;;5036817;28;20018;-68
2023/09/29 01:36:24;;;;;;;12.15;3.15;;;19.10;99.90;;;;;;5036651;28;20064;-69
2023/09/29 01:38:50;;;;;;;11.48;3.25;;;19.10;99.90;;;;;;5036881;28;20017;-69
2023/09/29 01:41:15;;;;;;;15.63;3.45;;;19.10;99.90;;;;;;5036554;28;20156;-69
2023/09/29 01:43:41;;;;;;;10.68;2.85;;;19.10;99.90;;;;;;5036662;28;20033;-68
2023/09/29 01:46:10;;;;;;;10.27;2.63;;;19.00;99.90;;;;;;5035429;28;20033;-69
2023/09/29 01:48:35;;;;;;;8.98;2.60;;;19.00;99.90;;;;;;5036910;28;20056;-69
2023/09/29 01:51:04;;;;;;;9.00;2.17;;;19.00;99.90;;;;;;5036427;28;20033;-68
2023/09/29 01:53:32;;;;;;;8.10;2.30;;;19.00;99.90;;;;;;5035455;28;20028;-69
2023/09/29 01:55:58;;;;;;;9.98;2.10;;;19.00;99.90;;;;;;5037900;28;20037;-69
2023/09/29 01:58:24;;;;;;;7.80;2.15;;;18.90;99.90;;;;;;5036541;28;20041;-69
2023/09/29 02:00:50;;;;;;;9.85;2.17;;;18.90;99.90;;;;;;5036559;28;20040;-69
2023/09/29 02:03:16;;;;;;;10.70;1.73;;;18.90;99.90;;;;;;5038512;28;20017;-70
2023/09/29 02:05:42;;;;;;;7.88;1.83;;;18.90;99.90;;;;;;5039859;28;20029;-69
2023/09/29 02:08:09;;;;;;;5.97;1.70;;;18.80;99.90;;;;;;5040446;28;20032;-70
2023/09/29 02:10:36;;;;;;;6.03;1.40;;;18.80;99.90;;;;;;5038588;28;20513;-70
2023/09/29 02:13:04;;;;;;;6.90;1.65;;;18.70;99.90;;;;;;5039994;28;20025;-70
2023/09/29 02:15:34;;;;;;;8.43;1.40;;;18.70;99.90;;;;;;5039929;28;20022;-69
2023/09/29 02:18:00;;;;;;;6.10;1.45;;;18.70;99.90;;;;;;5038664;28;20026;-70
2023/09/29 02:20:33;;;;;;;5.18;1.70;;;18.70;99.90;;;;;;5038299;28;20025;-69
2023/09/29 02:23:00;;;;;;;6.38;1.73;;;18.70;99.90;;;;;;5039008;28;20076;-69
2023/09/29 02:25:27;;;;;;;6.22;1.40;;;18.60;99.90;;;;;;5039485;28;20112;-69
2023/09/29 02:27:54;;;;;;;7.47;1.35;;;18.60;99.90;;;;;;5039934;28;20045;-71
2023/09/29 02:30:20;;;;;;;7.13;1.50;;;18.60;99.90;;;;;;5039388;28;20025;-68
2023/09/29 02:32:46;;;;;;;5.18;1.40;;;18.60;99.90;;;;;;5039655;28;20026;-71
2023/09/29 02:35:11;;;;;;;6.53;1.30;;;18.60;99.90;;;;;;5039267;28;20040;-68
2023/09/29 02:37:38;;;;;;;6.20;1.23;;;18.60;99.90;;;;;;5039576;28;20092;-70
2023/09/29 02:40:11;;;;;;;4.95;1.33;;;18.60;99.90;;;;;;5039213;28;20104;-70
2023/09/29 02:42:37;;;;;;;;;;;18.70;99.90;;;;;;5039677;28;20390;-70
2023/09/29 02:45:04;;;;;;;7.20;1.23;;;18.70;99.90;;;;;;5039249;28;19913;-67
2023/09/29 02:47:30;;;;;;;5.38;1.30;;;18.70;99.90;;;;;;5036969;28;20031;-70
2023/09/29 02:49:57;;;;;;;3.75;1.23;;;18.70;99.90;;;;;;5038779;28;20028;-71
2023/09/29 02:52:23;;;;;;;4.28;1.27;;;18.70;99.90;;;;;;5039371;28;20437;-70
2023/09/29 02:54:49;;;;;;;6.38;1.25;;;18.70;99.90;;;;;;5041697;28;20025;-71
2023/09/29 02:57:16;;;;;;;5.93;1.35;;;18.80;99.90;;;;;;5039080;28;20115;-70
2023/09/29 02:59:42;;;;;;;4.57;1.30;;;18.70;99.90;;;;;;5039073;28;20037;-70
2023/09/29 03:02:08;;;;;;;4.15;1.15;;;18.80;99.90;;;;;;5039375;28;20079;-70
2023/09/29 03:04:33;;;;;;;5.47;1.17;;;18.80;99.90;;;;;;5037615;28;20025;-70
2023/09/29 03:06:59;;;;;;;6.53;1.10;;;18.80;99.90;;;;;;5039009;28;20036;-68
2023/09/29 03:09:25;;;;;;;3.75;0.90;;;18.80;99.90;;;;;;5038871;28;20471;-70
2023/09/29 03:11:51;;;;;;;5.78;1.33;;;18.80;99.90;;;;;;5038723;28;20412;-71
2023/09/29 03:14:17;;;;;;;6.68;1.35;;;18.80;99.90;;;;;;5037745;28;20093;-70
2023/09/29 03:16:43;;;;;;;3.63;0.95;;;18.80;99.90;;;;;;5038765;28;20029;-68
2023/09/29 03:19:09;;;;;;;4.25;1.20;;;18.80;99.90;;;;;;5038544;28;21415;-71
2023/09/29 03:21:34;;;;;;;6.28;1.40;;;18.80;99.90;;;;;;5032886;28;20066;-71
2023/09/29 03:24:02;;;;;;;3.53;1.00;;;18.70;99.90;;;;;;5036133;28;20038;-71
2023/09/29 03:26:31;;;;;;;5.22;1.27;;;18.70;99.90;;;;;;5038332;28;20549;-70
2023/09/29 03:28:57;;;;;;;3.17;1.15;;;18.70;99.90;;;;;;5037247;28;20021;-70
2023/09/29 03:31:22;;;;;;;5.72;0.95;;;18.70;99.90;;;;;;5038205;28;20064;-70
2023/09/29 03:33:49;;;;;;;2.92;0.82;;;18.70;99.90;;;;;;5037963;28;20022;-67
2023/09/29 03:36:15;;;;;;;3.20;0.98;;;18.60;99.90;;;;;;5037774;28;20040;-69
2023/09/29 03:38:41;;;;;;;3.05;0.95;;;18.60;99.90;;;;;;5037772;28;20025;-68
2023/09/29 03:41:09;;;;;;;4.00;0.88;;;18.60;99.90;;;;;;5038014;28;20025;-69
2023/09/29 03:43:34;;;;;;;2.53;0.77;;;18.60;99.90;;;;;;5038137;28;20500;-68
2023/09/29 03:46:00;;;;;;;2.90;1.00;;;18.60;99.90;;;;;;5038450;28;20053;-69
2023/09/29 03:48:26;;;;;;;3.45;0.90;;;18.50;99.90;;;;;;5038001;28;20025;-69
2023/09/29 03:50:53;;;;;;;2.17;0.68;;;18.50;99.90;;;;;;5037953;28;20029;-69
2023/09/29 03:53:19;;;;;;;2.70;0.90;;;18.50;99.90;;;;;;5034311;28;20013;-69
2023/09/29 03:55:45;;;;;;;4.00;1.00;;;18.50;99.90;;;;;;5040300;28;20087;-69
2023/09/29 03:58:11;;;;;;;2.08;0.60;;;18.50;99.90;;;;;;5035800;28;20045;-69
2023/09/29 04:00:36;;;;;;;1.98;0.73;;;18.40;99.90;;;;;;5037906;28;20033;-69
2023/09/29 04:03:02;;;;;;;2.83;0.90;;;18.40;99.90;;;;;;5037856;28;20021;-68
2023/09/29 04:05:28;;;;;;;1.92;0.68;;;18.40;99.90;;;;;;5036292;28;20044;-68
2023/09/29 04:07:54;;;;;;;3.65;0.90;;;18.40;99.90;;;;;;5035697;28;20021;-68
2023/09/29 04:10:20;;;;;;;3.15;0.95;;;18.40;99.90;;;;;;5037187;28;20036;-68
2023/09/29 04:12:47;;;;;;;2.75;0.80;;;18.30;99.90;;;;;;5037563;28;20032;-68
2023/09/29 04:15:14;;;;;;;4.72;1.20;;;18.30;99.90;;;;;;5037713;28;20025;-68
2023/09/29 04:17:40;;;;;;;3.17;0.95;;;18.30;99.90;;;;;;5037614;28;20071;-68
2023/09/29 04:20:06;;;;;;;2.92;0.80;;;18.30;99.90;;;;;;5037531;28;20048;-68
2023/09/29 04:22:33;;;;;;;2.58;0.60;;;18.20;99.90;;;;;;5035045;28;20022;-70
2023/09/29 04:24:59;;;;;;;2.67;0.90;;;18.20;99.90;;;;;;5035781;28;20032;-69
2023/09/29 04:27:25;;;;;;;1.67;0.52;;;18.10;99.90;;;;;;5036157;28;20085;-69
2023/09/29 04:29:54;;;;;;;1.83;0.70;;;18.10;99.90;;;;;;5035915;28;20544;-69
2023/09/29 04:32:20;;;;;;;1.67;0.57;;;18.10;99.90;;;;;;5036699;28;20398;-69
2023/09/29 04:34:45;;;;;;;2.00;0.70;;;18.00;99.90;;;;;;5037012;28;20104;-68
2023/09/29 04:37:11;;;;;;;1.30;0.38;;;18.00;99.90;;;;;;5037281;28;20028;-68
2023/09/29 04:39:37;;;;;;;1.88;0.52;;;18.00;99.90;;;;;;5037283;28;20095;-68
2023/09/29 04:42:04;;;;;;;0.95;0.40;;;18.00;99.90;;;;;;5037050;28;20014;-68
2023/09/29 04:44:30;;;;;;;1.10;0.40;;;18.00;99.90;;;;;;5035177;28;20628;-69
2023/09/29 04:46:56;;;;;;;1.85;0.52;;;18.00;99.90;;;;;;5037227;28;20061;-69
2023/09/29 04:49:21;;;;;;;3.05;0.60;;;17.90;99.90;;;;;;5037228;28;20030;-69
2023/09/29 04:51:47;;;;;;;1.70;0.50;;;17.90;99.90;;;;;;5037145;28;20061;-69
2023/09/29 04:54:13;;;;;;;2.80;0.60;;;17.90;99.90;;;;;;5038977;28;20047;-69
2023/09/29 04:56:39;;;;;;;2.13;0.70;;;17.90;99.90;;;;;;5037505;28;20022;-70
2023/09/29 04:59:05;;;;;;;1.52;0.52;;;17.80;99.90;;;;;;5035596;28;20053;-69
2023/09/29 05:01:31;;;;;;;2.65;0.50;;;17.80;99.90;;;;;;5037151;28;20075;-70
2023/09/29 05:03:58;;;;;;;2.10;0.57;;;17.90;99.90;;;;;;5036077;28;20675;-69
2023/09/29 05:06:24;;;;;;;1.70;0.63;;;17.90;99.90;;;;;;5036504;28;20394;-69
2023/09/29 05:08:51;;;;;;;1.98;0.60;;;17.80;99.90;;;;;;5037122;28;20029;-68
2023/09/29 05:11:23;;;;;;;3.47;0.70;;;17.90;99.90;;;;;;5036857;28;20017;-68
2023/09/29 05:13:50;;;;;;;1.30;0.50;;;17.80;99.90;;;;;;5036974;28;20022;-68
2023/09/29 05:16:16;;;;;;;2.53;0.70;;;17.90;99.90;;;;;;5037172;28;20052;-68
2023/09/29 05:18:43;;;;;;;2.15;0.85;;;17.90;99.90;;;;;;5036944;28;20084;-68
2023/09/29 05:21:09;;;;;;;2.08;0.75;;;17.90;99.90;;;;;;5035544;28;20026;-68
2023/09/29 05:23:35;;;;;;;2.75;0.90;;;17.90;99.90;;;;;;5029262;28;20104;-68
2023/09/29 05:26:04;;;;;;;2.83;1.05;;;17.80;99.90;;;;;;5036928;28;20029;-69
2023/09/29 05:28:30;;;;;;;3.63;1.17;;;17.80;99.90;;;;;;5035489;28;20051;-69
2023/09/29 05:30:56;;;;;;;3.05;1.15;;;17.80;99.90;;;;;;5037109;28;20032;-69
2023/09/29 05:33:22;;;;;;;5.00;1.30;;;17.80;99.90;;;;;;5036599;28;20022;-69
2023/09/29 05:35:48;;;;;;;4.40;1.17;;;17.80;99.90;;;;;;5036404;28;20024;-68
2023/09/29 05:38:13;;;;;;;4.18;1.25;;;17.80;99.90;;;;;;5038342;28;20029;-69
2023/09/29 05:40:39;;;;;;;5.15;1.35;;;17.80;99.90;;;;;;5039716;28;20047;-69
2023/09/29 05:43:09;;;;;;;3.17;1.00;;;17.80;99.90;;;;;;5039093;28;20033;-69
2023/09/29 05:45:42;;;;;;;3.95;1.23;;;17.80;99.90;;;;;;5039685;28;20425;-69
2023/09/29 05:48:10;;;;;;;3.83;1.33;;;17.80;99.90;;;;;;5041950;28;20043;-69
2023/09/29 05:50:36;;;;;;;2.83;1.05;;;17.80;99.90;;;;;;5049114;28;20323;-70
2023/09/29 05:53:03;;;;;;;4.35;1.30;;;17.70;99.90;;;;;;5044903;28;20375;-70
2023/09/29 05:55:29;;;;;;;4.97;1.42;;;17.70;99.90;;;;;;5041468;28;20049;-68
2023/09/29 05:57:54;;;;;;;3.47;1.00;;;17.70;99.90;;;;;;5039585;28;20402;-68
2023/09/29 06:00:20;;;;;;;4.05;1.13;;;17.60;99.90;;;;;;5039621;28;20040;-68
2023/09/29 06:02:46;;;;;;;4.13;1.17;;;17.60;99.90;;;;;;5038587;28;20164;-68
2023/09/29 06:05:14;;;;;;;4.63;1.30;;;17.40;99.90;;;;;;5039407;28;20111;-69
2023/09/29 06:07:40;;;;;;;4.68;1.20;;;17.30;99.90;;;;;;5039163;28;20040;-69
2023/09/29 06:10:06;;;;;;;4.50;1.20;;;17.30;99.90;;;;;;5040048;28;20064;-68
2023/09/29 06:12:35;;;;;;;4.95;1.30;;;17.20;99.90;;;;;;5039572;28;20561;-68
2023/09/29 06:15:01;;;;;;;3.58;1.02;;;17.20;99.90;;;;;;5039293;28;20029;-68
2023/09/29 06:17:26;;;;;;;5.20;1.10;;;17.20;99.90;;;;;;5038031;28;20036;-69
2023/09/29 06:19:52;;;;;;;4.70;1.15;;;17.20;99.90;;;;;;5038103;28;20025;-69
2023/09/29 06:22:18;;;;;;;4.03;1.13;;;17.20;99.90;;;;;;5036040;28;20405;-69
2023/09/29 06:24:44;;;;;;;3.58;1.20;;;17.20;99.90;;;;;;5036727;28;20017;-68
2023/09/29 06:27:13;;;;;;;4.75;1.40;;;17.30;99.90;;;;;;5035635;28;20161;-68
2023/09/29 06:29:40;;;;;;;3.65;1.15;;;17.30;99.90;;;;;;5027968;28;20026;-68
2023/09/29 06:32:08;;;;;;;3.50;1.20;;;17.30;99.90;;;;;;5031059;28;20035;-68
2023/09/29 06:34:34;;;;;;;2.55;0.90;;;17.30;99.90;;;;;;5036799;28;20033;-68
2023/09/29 06:37:00;;;;;;;4.00;1.30;;;17.40;99.90;;;;;;5038656;28;20021;-68
2023/09/29 06:39:26;;;;;;;3.97;1.15;;;17.40;99.90;;;;;;5038956;28;20037;-68
2023/09/29 06:41:52;;;;;;;3.47;1.20;;;17.40;99.90;;;;;;5038924;28;20466;-68
2023/09/29 06:44:18;;;;;;;3.50;1.10;;;17.50;99.90;;;;;;5038164;28;20022;-68
2023/09/29 06:46:44;;;;;;;3.25;1.38;;;17.50;99.90;;;;;;5038511;28;20034;-68
2023/09/29 06:49:09;;;;;;;4.43;1.35;;;17.50;99.90;;;;;;5038097;28;20048;-67
2023/09/29 06:51:35;;;;;;;4.80;1.25;;;17.50;99.90;;;;;;5037232;28;20052;-68
2023/09/29 06:54:02;;;;;;;6.07;1.58;;;17.50;99.90;;;;;;5038592;28;20018;-68
2023/09/29 06:56:27;;;;;;;4.95;1.15;;;17.60;99.90;;;;;;5038201;28;20018;-68
2023/09/29 06:58:54;;;;;;;3.80;1.27;;;17.60;99.90;;;;;;5034114;28;20041;-68
2023/09/29 07:01:20;;;;;;;5.00;1.45;;;17.70;99.90;;;;;;5038372;28;20104;-66
2023/09/29 07:03:47;;;;;;;4.30;1.35;;;17.70;99.90;;;;;;5038275;28;20064;-67
2023/09/29 07:06:13;;;;;;;3.92;1.13;;;17.80;99.90;;;;;;5038051;28;20040;-65
2023/09/29 07:08:39;;;;;;;3.22;1.30;;;17.80;99.90;;;;;;5037498;28;20029;-64
2023/09/29 07:11:05;;;;;;;5.13;1.40;;;17.80;99.90;;;;;;5037591;28;20367;-64
2023/09/29 07:13:31;;;;;;;4.22;1.38;;;17.80;99.90;;;;;;5038031;28;20021;-64
2023/09/29 07:15:56;;;;;;;4.97;1.30;;;17.80;99.90;;;;;;5038396;28;20478;-67
2023/09/29 07:18:22;;;;;;;4.53;1.35;;;17.80;99.90;;;;;;5038386;28;20025;-67
2023/09/29 07:20:52;;;;;;;5.03;1.15;;;17.80;99.90;;;;;;5033230;28;20040;-66
2023/09/29 07:23:21;;;;;;;4.10;1.20;;;17.90;99.90;;;;;;5032788;28;20026;-66
2023/09/29 07:25:47;;;;;;;2.70;0.90;;;17.90;99.90;;;;;;5035953;28;20466;-65
2023/09/29 07:28:15;;;;;;;3.30;1.10;;;17.90;99.90;;;;;;5038551;28;20036;-66
2023/09/29 07:30:41;;;;;;;4.07;1.00;;;17.90;99.90;;;;;;5033871;28;20021;-66
2023/09/29 07:33:07;;;;;;;2.42;1.00;;;18.00;99.90;;;;;;5035402;28;20028;-68
2023/09/29 07:35:34;;;;;;;3.50;1.23;;;18.00;99.90;;;;;;5036273;28;20030;-66
2023/09/29 07:38:00;;;;;;;4.32;1.00;;;18.00;99.90;;;;;;5035889;28;20025;-66
2023/09/29 07:40:26;;;;;;;5.50;1.17;;;18.00;99.90;;;;;;5036467;28;20343;-67
2023/09/29 07:42:52;;;;;;;2.88;1.10;;;18.10;99.90;;;;;;5036234;28;20025;-67
2023/09/29 07:45:19;;;;;;;3.83;1.25;;;18.10;99.90;;;;;;5035406;28;20119;-67
2023/09/29 07:47:45;;;;;;;3.15;1.05;;;18.10;99.90;;;;;;5036166;28;20021;-67
2023/09/29 07:50:11;;;;;;;5.10;1.40;;;18.10;99.90;;;;;;5036429;28;20102;-67
2023/09/29 07:52:38;;;;;;;3.92;0.88;;;18.20;99.90;;;;;;5037256;28;20508;-66
2023/09/29 07:55:08;;;;;;;2.92;1.00;;;18.20;99.90;;;;;;5037002;28;20029;-66
2023/09/29 07:57:34;;;;;;;4.20;1.33;;;18.20;99.90;;;;;;5037156;28;20041;-66
2023/09/29 08:00:00;;;;;;;4.40;1.40;;;18.20;99.90;;;;;;5037282;28;20021;-66
2023/09/29 08:02:27;;;;;;;5.55;1.02;;;18.30;99.90;;;;;;5036931;28;20026;-66
2023/09/29 08:04:52;;;;;;;3.25;0.90;;;18.40;99.90;;;;;;5036694;28;20410;-66
2023/09/29 08:07:19;;;;;;;3.13;1.05;;;18.50;99.90;;;;;;5037490;28;20040;-67
2023/09/29 08:09:45;;;;;;;4.50;1.30;;;18.50;99.90;;;;;;5037207;28;20034;-66
2023/09/29 08:12:11;;;;;;;3.17;1.10;;;18.50;99.90;;;;;;5037050;28;20176;-67
2023/09/29 08:14:37;;;;;;;3.90;1.00;;;18.50;99.90;;;;;;5036539;28;20022;-66
2023/09/29 08:17:02;;;;;;;3.72;0.85;;;18.60;99.90;;;;;;5036803;28;20021;-66
2023/09/29 08:19:29;;;;;;;4.18;1.25;;;18.50;99.90;;;;;;5036642;28;20406;-67
2023/09/29 08:21:54;;;;;;;2.85;0.88;;;18.50;99.90;;;;;;5036786;28;20126;-67
2023/09/29 08:24:20;;;;;;;4.93;1.10;;;18.50;99.90;;;;;;5036375;28;20060;-66
2023/09/29 08:26:46;;;;;;;3.45;1.00;;;18.60;99.90;;;;;;5036005;28;20029;-67
2023/09/29 08:29:15;;;;;;;4.28;1.10;;;18.80;99.90;;;;;;5033786;28;20033;-66
2023/09/29 08:31:42;;;;;;;3.38;1.00;;;18.80;99.90;;;;;;5033470;28;20084;-66
2023/09/29 08:34:07;;;;;;;1.98;0.88;;;18.80;99.90;;;;;;5036591;28;20474;-67
2023/09/29 08:36:33;;;;;;;3.45;1.10;;;18.80;99.90;;;;;;5036058;28;20022;-67
2023/09/29 08:38:59;;;;;;;3.28;1.13;;;18.70;99.90;;;;;;5036543;28;20052;-67
2023/09/29 08:41:28;;;;;;;2.13;0.98;;;18.70;99.90;;;;;;5035488;28;20083;-66
2023/09/29 08:43:55;;;;;;;4.95;1.42;;;18.60;99.90;;;;;;5034129;28;20478;-66
2023/09/29 08:46:21;;;;;;;7.50;1.90;;;18.20;99.90;;;;;;5033265;28;20036;-67
2023/09/29 08:48:48;;;;;;;8.65;2.28;;;17.70;99.90;;;;;;5036728;28;20025;-67
2023/09/29 08:51:15;;;;;;;7.90;2.40;;;17.30;99.90;;;;;;5035186;28;20014;-67
2023/09/29 08:53:44;;;;;;;6.97;2.30;;;17.00;99.90;;;;;;5033816;28;20029;-66
2023/09/29 08:56:16;;;;;;;8.70;2.55;;;16.90;99.90;;;;;;5038712;28;20096;-67
2023/09/29 08:58:42;;;;;;;8.23;2.95;;;16.90;99.90;;;;;;5036396;28;20045;-67
2023/09/29 09:01:11;;;;;;;12.43;2.90;;;17.00;99.90;;;;;;5033459;28;20033;-67
2023/09/29 09:03:37;;;;;;;6.93;2.45;;;17.00;99.90;;;;;;5035806;28;20136;-66
2023/09/29 09:06:19;;;;;;;7.63;2.53;;;17.00;99.90;;;;;;5034899;28;20055;-67
2023/09/29 09:08:45;;;;;;;9.00;2.63;;;17.00;99.90;;;;;;5035763;28;20490;-67
2023/09/29 09:11:11;;;;;;;8.30;2.92;;;17.20;99.90;;;;;;5036011;28;20022;-67
2023/09/29 09:13:36;;;;;;;9.13;2.65;;;17.30;99.90;;;;;;5044309;28;20041;-66
2023/09/29 09:16:02;;;;;;;7.22;2.70;;;17.40;99.90;;;;;;5046348;28;20063;-67
2023/09/29 09:18:28;;;;;;;8.70;2.75;;;17.60;99.90;;;;;;5040937;28;20096;-66
2023/09/29 09:20:54;;;;;;;9.57;2.78;;;17.70;99.90;;;;;;5039516;28;20104;-65
2023/09/29 09:23:20;;;;;;;5.78;2.17;;;17.80;99.90;;;;;;5039494;28;20053;-66
2023/09/29 09:25:46;;;;;;;9.48;3.20;;;18.00;99.90;;;;;;5038104;28;20034;-65
2023/09/29 09:28:18;;;;;;;7.60;2.65;;;18.10;99.90;;;;;;5040321;28;20041;-65
2023/09/29 09:30:46;;;;;;;7.93;2.92;;;18.10;99.90;;;;;;5038902;28;20112;-65
2023/09/29 09:33:21;;;;;;;8.65;2.75;;;18.10;99.90;;;;;;5038758;28;20036;-65
2023/09/29 09:35:49;;;;;;;8.80;2.75;;;18.20;99.90;;;;;;5038182;28;20481;-66
2023/09/29 09:38:15;;;;;;;8.95;3.20;;;18.30;99.90;;;;;;5037928;28;20028;-66
2023/09/29 09:40:43;;;;;;;8.48;2.92;;;18.40;99.90;;;;;;5039822;28;20029;-66
2023/09/29 09:43:10;;;;;;;8.00;3.00;;;18.20;99.90;;;;;;5050617;28;20037;-66
2023/09/29 09:45:39;;;;;;;10.98;3.72;;;18.10;99.90;;;;;;5039834;28;20513;-66
2023/09/29 09:48:07;;;;;;;11.10;3.80;;;18.10;99.90;;;;;;5039741;28;20018;-66
2023/09/29 09:50:36;;;;;;;10.10;4.07;;;18.00;99.90;;;;;;5038588;28;20471;-66
2023/09/29 09:53:03;;;;;;;10.90;3.15;;;18.10;99.90;;;;;;5039513;28;20061;-66
2023/09/29 09:55:44;;;;;;;8.82;3.60;;;18.10;99.90;;;;;;5042220;28;20038;-66
2023/09/29 09:58:15;;;;;;;8.65;3.15;;;18.30;99.90;;;;;;5039730;28;20041;-66
2023/09/29 10:00:46;;;;;;;9.55;3.10;;;18.40;99.90;;;;;;5040020;28;20535;-66
2023/09/29 10:03:16;;;;;;;7.90;3.00;;;18.60;99.90;;;;;;5039167;28;20029;-66
2023/09/29 10:05:51;;;;;;;9.85;2.90;;;18.80;99.90;;;;;;5038656;28;20030;-72
2023/09/29 10:08:29;;;;;;;10.98;3.13;;;18.70;99.90;;;;;;5038895;28;20021;-66
2023/09/29 10:11:09;;;;;;;7.35;2.92;;;18.80;99.90;;;;;;5037409;28;20032;-66
2023/09/29 10:13:38;;;;;;;6.88;2.85;;;18.90;99.90;;;;;;5046453;28;20032;-68
2023/09/29 10:16:06;;;;;;;6.47;2.55;;;19.00;99.90;;;;;;5040078;28;20044;-67
2023/09/29 10:18:33;;;;;;;7.43;2.80;;;19.00;99.90;;;;;;5040886;28;20470;-67
2023/09/29 10:21:06;;;;;;;10.05;2.75;;;19.10;99.90;;;;;;5048447;28;20057;-64
2023/09/29 10:23:45;;;;;;;9.02;3.22;;;19.20;99.90;;;;;;5036550;28;20037;-67
2023/09/29 10:26:11;;;;;;;9.80;3.63;;;19.20;99.90;;;;;;5037269;28;20037;-67
2023/09/29 10:28:41;;;;;;;8.13;3.30;;;19.30;99.90;;;;;;5040666;28;20053;-68
2023/09/29 10:31:07;;;;;;;9.02;3.08;;;19.30;99.90;;;;;;5033597;28;20026;-68
2023/09/29 10:33:43;;;;;;;9.65;3.40;;;19.40;99.90;;;;;;5029684;28;20030;-67
2023/09/29 10:36:09;;;;;;;11.23;4.05;;;19.40;99.90;;;;;;5042013;28;20025;-66
2023/09/29 10:38:35;;;;;;;11.02;4.05;;;19.40;99.90;;;;;;5039026;28;20441;-67
2023/09/29 10:41:03;;;;;;;8.95;3.50;;;19.40;99.90;;;;;;5045596;28;20033;-67
2023/09/29 10:43:28;;;;;;;10.63;3.75;;;19.50;99.90;;;;;;5038288;28;20061;-68
2023/09/29 10:45:56;;;;;;;10.93;3.67;;;19.50;99.90;;;;;;5037473;28;20505;-67
2023/09/29 10:48:26;;;;;;;10.95;4.15;;;19.40;99.90;;;;;;5038604;28;20022;-69
2023/09/29 10:50:52;;;;;;;10.20;3.95;;;19.50;99.90;;;;;;5038854;28;20029;-68
2023/09/29 10:53:22;;;;;;;14.27;4.53;;;19.50;99.90;;;;;;5038563;28;20441;-68
2023/09/29 10:55:49;;;;;;;11.23;4.10;;;19.40;99.90;;;;;;5041042;28;20100;-68
2023/09/29 10:58:18;;;;;;;10.90;4.13;;;19.10;99.90;;;;;;5036635;28;20036;-66
2023/09/29 11:00:49;;;;;;;10.50;3.65;;;19.00;99.90;;;;;;5036478;28;20064;-68
2023/09/29 11:03:24;;;;;;;10.95;4.28;;;19.00;99.90;;;;;;5038341;28;20025;-71
2023/09/29 11:05:51;;;;;;;9.98;3.55;;;19.20;99.90;;;;;;5035693;28;20032;-71
2023/09/29 11:08:28;;;;;;;10.45;4.60;;;19.20;99.90;;;;;;5038221;28;20053;-68
2023/09/29 11:11:06;;;;;;;12.60;4.60;;;19.30;99.90;;;;;;5036526;28;20033;-72
2023/09/29 11:13:33;;;;;;;10.23;4.10;;;19.40;99.90;;;;;;5031932;28;20029;-68
2023/09/29 11:15:59;;;;;;;10.98;4.55;;;19.50;99.90;;;;;;5037202;28;20441;-67
2023/09/29 11:18:33;;;;;;;10.20;3.95;;;19.50;99.90;;;;;;5037511;28;20013;-67
2023/09/29 11:21:04;;;;;;;9.13;4.03;;;19.40;99.90;;;;;;5037274;28;20097;-67
2023/09/29 11:23:44;;;;;;;8.38;3.70;;;19.30;99.90;;;;;;5035919;28;20074;-66
2023/09/29 11:26:10;;;;;;;8.38;3.50;;;19.40;99.90;;;;;;5033359;28;20026;-67
2023/09/29 11:28:43;;;;;;;10.23;4.10;;;19.40;99.90;;;;;;5036546;28;20029;-66
2023/09/29 11:31:10;;;;;;;10.40;3.80;;;19.60;99.90;;;;;;5035141;28;20513;-67
2023/09/29 11:33:37;;;;;;;10.13;3.70;;;19.70;99.90;;;;;;5037751;28;20021;-67
2023/09/29 11:36:23;;;;;;;15.00;4.95;;;19.80;99.90;;;;;;5036241;28;20032;-67
2023/09/29 11:38:50;;;;;;;9.52;3.88;;;19.60;99.90;;;;;;5036988;28;20363;-67
2023/09/29 11:41:22;;;;;;;11.55;4.38;;;19.80;99.90;;;;;;5041377;28;20017;-65
2023/09/29 11:43:48;;;;;;;10.68;3.58;;;19.80;99.90;;;;;;5040434;28;20017;-67
2023/09/29 11:46:14;;;;;;;7.63;3.55;;;19.90;99.90;;;;;;5037251;28;20029;-65
2023/09/29 11:48:41;;;;;;;8.68;3.55;;;19.90;99.90;;;;;;5036260;28;20104;-66
2023/09/29 11:51:10;;;;;;;8.93;3.80;;;19.80;99.90;;;;;;5036980;28;20048;-65
2023/09/29 11:53:36;;;;;;;10.43;4.20;;;19.90;99.90;;;;;;5036397;28;20034;-66
2023/09/29 11:56:03;;;;;;;8.80;3.63;;;19.90;99.90;;;;;;5038631;28;20029;-67
2023/09/29 11:58:29;;;;;;;8.90;4.10;;;20.10;99.90;;;;;;5036120;28;20046;-66
2023/09/29 12:00:55;;;;;;;10.10;4.00;;;20.40;99.90;;;;;;5037085;28;20048;-67
2023/09/29 12:03:23;;;;;;;11.40;4.25;;;20.20;99.90;;;;;;5036758;28;20030;-67
2023/09/29 12:05:52;;;;;;;9.98;4.38;;;20.00;99.90;;;;;;5035044;28;20034;-66
2023/09/29 12:08:19;;;;;;;7.78;3.33;;;20.10;99.90;;;;;;5036768;28;20025;-66
2023/09/29 12:10:45;;;;;;;7.47;3.40;;;20.10;95.80;;;;;;5036780;28;20108;-66
2023/09/29 12:13:14;;;;;;;11.18;3.63;;;20.20;99.90;;;;;;5036167;28;20131;-67
2023/09/29 12:15:40;;;;;;;7.43;3.45;;;20.40;98.30;;;;;;5036831;28;20021;-67
2023/09/29 12:18:06;;;;;;;8.18;3.38;;;20.50;95.30;;;;;;5037046;28;20499;-66
2023/09/29 12:20:31;;;;;;;10.82;3.70;;;20.50;98.40;;;;;;5036148;28;20104;-66
2023/09/29 12:23:00;;;;;;;7.47;3.50;;;20.50;99.90;;;;;;5036494;28;20041;-66
2023/09/29 12:25:26;;;;;;;10.02;3.58;;;20.40;99.70;;;;;;5035015;28;20029;-66
2023/09/29 12:27:52;;;;;;;12.20;3.95;;;20.70;99.60;;;;;;5037170;28;20078;-67
2023/09/29 12:30:18;;;;;;;10.48;3.50;;;20.70;96.90;;;;;;5036674;28;20498;-67
2023/09/29 12:32:45;;;;;;;10.27;3.83;;;20.70;97.90;;;;;;5036253;28;20064;-67
2023/09/29 12:35:14;;;;;;;10.32;3.47;;;20.90;97.80;;;;;;5035309;28;20030;-65
2023/09/29 12:37:44;;;;;;;7.32;3.33;;;20.80;95.90;;;;;;5035056;28;20025;-65
2023/09/29 12:40:12;;;;;;;9.60;3.72;;;20.90;97.70;;;;;;5033877;28;20025;-67
2023/09/29 12:42:49;;;;;;;9.35;3.90;;;21.00;95.10;;;;;;5036415;28;20026;-66
2023/09/29 12:45:17;;;;;;;10.20;3.90;;;21.00;97.00;;;;;;5035320;28;20021;-66